createdAt,value
2019-05-04T00:00:39.698Z,6.65
2019-05-04T00:03:09.298Z,6.78
2019-05-04T00:05:44.349Z,6.42
2019-05-04T00:08:14.648Z,6.33
2019-05-04T00:10:44.899Z,7.28
2019-05-04T00:13:15.417Z,7.28
2019-05-04T00:15:45.035Z,5.75
2019-05-04T00:18:15.324Z,6.60
2019-05-04T00:20:53.168Z,7.10
2019-05-04T00:23:16.024Z,5.85
2019-05-04T00:25:45.597Z,7.00
2019-05-04T00:28:15.416Z,6.75
2019-05-04T00:30:45.317Z,6.90
2019-05-04T00:33:28.062Z,5.53
2019-05-04T00:36:16.501Z,5.62
2019-05-04T00:38:45.960Z,5.92
2019-05-04T00:41:15.521Z,6.40
2019-05-04T00:43:44.993Z,6.65
2019-05-04T00:46:16.166Z,5.80
2019-05-04T00:48:45.582Z,5.87
2019-05-04T00:51:15.035Z,6.62
2019-05-04T00:53:45.460Z,5.65
2019-05-04T00:56:19.210Z,6.03
2019-05-04T00:58:55.431Z,6.30
2019-05-04T01:01:29.552Z,5.95
2019-05-04T01:03:59.017Z,5.72
2019-05-04T01:06:28.460Z,5.55
2019-05-04T01:08:57.952Z,7.37
2019-05-04T01:11:27.415Z,5.75
2019-05-04T01:13:57.894Z,6.10
2019-05-04T01:16:27.480Z,6.87
2019-05-04T01:18:57.323Z,5.90
2019-05-04T01:21:27.146Z,5.50
2019-05-04T01:23:56.594Z,6.60
2019-05-04T01:26:26.079Z,5.10
2019-05-04T01:28:55.869Z,6.30
2019-05-04T01:31:25.876Z,5.60
2019-05-04T01:34:05.135Z,4.85
2019-05-04T01:36:40.016Z,6.10
2019-05-04T01:39:21.496Z,5.65
2019-05-04T01:41:51.336Z,5.12
2019-05-04T01:44:20.801Z,5.40
2019-05-04T01:46:50.271Z,5.47
2019-05-04T01:49:19.698Z,4.83
2019-05-04T01:51:49.251Z,5.10
2019-05-04T01:54:18.688Z,5.72
2019-05-04T01:56:51.411Z,5.55
2019-05-04T01:59:42.365Z,5.80
2019-05-04T02:02:11.897Z,6.28
2019-05-04T02:04:41.370Z,5.60
2019-05-04T02:07:10.830Z,5.87
2019-05-04T02:09:40.297Z,5.95
2019-05-04T02:12:10.119Z,5.45
2019-05-04T02:14:39.585Z,5.10
2019-05-04T02:17:09.076Z,5.55
2019-05-04T02:19:38.539Z,5.67
2019-05-04T02:22:14.617Z,5.70
2019-05-04T02:24:45.625Z,6.00
2019-05-04T02:27:36.843Z,5.40
2019-05-04T02:30:16.375Z,7.08
2019-05-04T02:32:46.558Z,5.15
2019-05-04T02:35:16.885Z,6.15
2019-05-04T02:38:04.338Z,6.05
2019-05-04T02:40:37.409Z,5.87
2019-05-04T02:43:01.318Z,5.95
2019-05-04T02:45:30.769Z,6.00
2019-05-04T02:48:25.466Z,5.22
2019-05-04T02:50:59.345Z,5.50
2019-05-04T02:53:28.789Z,7.08
2019-05-04T02:55:58.274Z,6.15
2019-05-04T02:58:33.919Z,6.53
2019-05-04T03:00:58.847Z,5.97
2019-05-04T03:03:28.312Z,5.85
2019-05-04T03:05:57.769Z,6.15
2019-05-04T03:08:33.552Z,5.60
2019-05-04T03:10:58.463Z,6.58
2019-05-04T03:13:28.035Z,6.17
2019-05-04T03:15:57.474Z,6.45
2019-05-04T03:18:35.526Z,6.20
2019-05-04T03:21:42.531Z,5.42
2019-05-04T03:24:30.921Z,6.20
2019-05-04T03:27:00.375Z,6.08
2019-05-04T03:29:29.793Z,5.45
2019-05-04T03:31:59.495Z,5.12
2019-05-04T03:34:52.150Z,5.78
2019-05-04T03:37:00.009Z,5.60
2019-05-04T03:39:29.842Z,5.00
2019-05-04T03:41:59.228Z,5.20
2019-05-04T03:44:28.631Z,5.00
2019-05-04T03:47:17.021Z,5.67
2019-05-04T03:50:00.349Z,5.65
2019-05-04T03:52:37.391Z,4.70
2019-05-04T03:55:08.959Z,5.00
2019-05-04T03:57:38.442Z,5.10
2019-05-04T04:00:12.153Z,5.00
2019-05-04T04:02:41.574Z,5.60
2019-05-04T04:05:11.412Z,5.08
2019-05-04T04:07:40.832Z,5.47
2019-05-04T04:10:10.455Z,5.20
2019-05-04T04:12:39.881Z,5.67
2019-05-04T04:15:09.950Z,4.62
2019-05-04T04:17:48.104Z,5.55
2019-05-04T04:20:17.549Z,5.03
2019-05-04T04:22:47.314Z,5.50
2019-05-04T04:25:25.570Z,5.85
2019-05-04T04:27:55.942Z,7.03
2019-05-04T04:30:26.072Z,8.95
2019-05-04T04:32:55.986Z,10.80
2019-05-04T04:35:26.762Z,9.43
2019-05-04T04:37:56.639Z,9.75
2019-05-04T04:40:26.567Z,7.95
2019-05-04T04:42:56.343Z,8.00
2019-05-04T04:45:26.001Z,8.03
2019-05-04T04:47:55.763Z,7.72
2019-05-04T04:50:37.568Z,5.10
2019-05-04T04:53:07.593Z,6.40
2019-05-04T04:55:37.174Z,6.22
2019-05-04T04:58:12.069Z,5.70
2019-05-04T05:01:06.206Z,5.85
2019-05-04T05:03:35.751Z,6.00
2019-05-04T05:06:05.289Z,6.30
2019-05-04T05:08:35.762Z,6.78
2019-05-04T05:11:05.407Z,8.93
2019-05-04T05:13:34.843Z,8.55
2019-05-04T05:16:04.471Z,9.25
2019-05-04T05:18:34.723Z,7.85
2019-05-04T05:21:29.014Z,9.20
2019-05-04T05:23:58.427Z,8.83
2019-05-04T05:26:27.833Z,8.63
2019-05-04T05:28:57.256Z,9.08
2019-05-04T05:31:39.861Z,10.55
2019-05-04T05:34:44.415Z,10.48
2019-05-04T05:37:14.722Z,7.80
2019-05-04T05:39:57.049Z,7.45
2019-05-04T05:42:18.413Z,8.33
2019-05-04T05:44:46.403Z,7.10
2019-05-04T05:47:41.014Z,6.25
2019-05-04T05:50:15.946Z,6.42
2019-05-04T05:52:57.694Z,7.00
2019-05-04T05:55:44.356Z,7.00
2019-05-04T05:58:47.892Z,5.83
2019-05-04T06:01:35.236Z,6.28
2019-05-04T06:04:26.400Z,5.58
2019-05-04T06:07:00.165Z,5.00
2019-05-04T06:09:29.647Z,6.47
2019-05-04T06:12:03.101Z,5.72
2019-05-04T06:15:00.287Z,6.05
2019-05-04T06:17:47.011Z,5.53
2019-05-04T06:20:21.288Z,5.80
2019-05-04T06:23:09.658Z,6.25
2019-05-04T06:25:48.708Z,5.80
2019-05-04T06:28:28.257Z,5.80
2019-05-04T06:31:15.170Z,5.78
2019-05-04T06:33:51.931Z,7.58
2019-05-04T06:36:49.169Z,7.00
2019-05-04T06:39:38.678Z,6.70
2019-05-04T06:42:16.961Z,5.92
2019-05-04T06:44:54.583Z,5.55
2019-05-04T06:47:22.807Z,5.92
2019-05-04T06:49:54.216Z,5.85
2019-05-04T06:52:38.978Z,6.17
2019-05-04T06:55:19.424Z,5.97
2019-05-04T06:58:07.573Z,6.45
2019-05-04T07:00:44.688Z,7.58
2019-05-04T07:03:23.821Z,6.33
2019-05-04T07:05:45.392Z,6.83
2019-05-04T07:08:28.462Z,6.85
2019-05-04T07:11:06.414Z,6.80
2019-05-04T07:13:24.034Z,6.50
2019-05-04T07:15:49.832Z,6.85
2019-05-04T07:18:19.898Z,7.15
2019-05-04T07:20:49.334Z,8.40
2019-05-04T07:23:19.754Z,7.12
2019-05-04T07:25:54.845Z,7.55
2019-05-04T07:28:20.473Z,8.05
2019-05-04T07:30:54.504Z,7.03
2019-05-04T07:33:28.939Z,8.00
2019-05-04T07:36:15.920Z,8.00
2019-05-04T07:39:14.778Z,8.13
2019-05-04T07:41:51.123Z,7.50
2019-05-04T07:44:19.082Z,7.45
2019-05-04T07:46:49.667Z,10.68
2019-05-04T07:49:19.511Z,10.30
2019-05-04T07:51:53.181Z,10.00
2019-05-04T07:54:26.951Z,10.90
2019-05-04T07:56:53.669Z,10.10
2019-05-04T07:59:27.536Z,9.98
2019-05-04T08:01:54.825Z,8.95
2019-05-04T08:04:24.892Z,10.78
2019-05-04T08:07:00.200Z,10.48
2019-05-04T08:09:25.566Z,12.33
2019-05-04T08:12:17.054Z,13.38
2019-05-04T08:14:59.006Z,10.35
2019-05-04T08:17:17.663Z,10.20
2019-05-04T08:19:47.486Z,12.18
2019-05-04T08:22:20.130Z,22.52
2019-05-04T08:24:49.103Z,34.27
2019-05-04T08:27:26.021Z,12.80
2019-05-04T08:29:59.678Z,11.75
2019-05-04T08:32:26.726Z,11.15
2019-05-04T08:34:56.669Z,9.90
2019-05-04T08:37:30.469Z,12.15
2019-05-04T08:39:57.549Z,10.30
2019-05-04T08:42:30.790Z,10.70
2019-05-04T08:44:58.263Z,12.07
2019-05-04T08:47:54.733Z,11.30
2019-05-04T08:50:24.565Z,15.80
2019-05-04T08:53:01.608Z,12.10
2019-05-04T08:55:55.567Z,12.82
2019-05-04T08:58:31.499Z,14.43
2019-05-04T09:01:11.100Z,11.60
2019-05-04T09:03:34.754Z,12.37
2019-05-04T09:06:15.817Z,12.20
2019-05-04T09:08:35.414Z,12.05
2019-05-04T09:11:13.307Z,42.43
2019-05-04T09:13:38.105Z,16.55
2019-05-04T09:16:07.166Z,14.80
2019-05-04T09:18:39.854Z,13.90
2019-05-04T09:21:10.486Z,15.38
2019-05-04T09:23:39.987Z,13.28
2019-05-04T09:26:12.666Z,15.20
2019-05-04T09:28:43.558Z,15.45
2019-05-04T09:31:12.149Z,13.55
2019-05-04T09:33:47.732Z,11.73
2019-05-04T09:36:15.238Z,10.95
2019-05-04T09:38:44.890Z,10.82
2019-05-04T09:41:29.806Z,11.10
2019-05-04T09:44:01.583Z,11.25
2019-05-04T09:46:30.519Z,13.72
2019-05-04T09:49:00.118Z,10.90
2019-05-04T09:51:34.416Z,11.93
2019-05-04T09:54:05.022Z,9.80
2019-05-04T09:56:35.108Z,9.98
2019-05-04T09:59:08.062Z,9.85
2019-05-04T10:09:44.246Z,10.08
2019-05-04T10:12:19.856Z,9.78
2019-05-04T10:14:56.471Z,10.35
2019-05-04T10:17:37.465Z,11.10
2019-05-04T10:20:07.059Z,12.00
2019-05-04T10:22:36.533Z,7.62
2019-05-04T10:25:06.137Z,6.75
2019-05-04T10:27:40.335Z,6.10
2019-05-04T10:30:12.588Z,5.80
2019-05-04T10:32:41.289Z,3.85
2019-05-04T10:35:10.953Z,3.70
2019-05-04T10:37:40.390Z,2.42
2019-05-04T10:40:11.103Z,3.40
2019-05-04T10:42:42.606Z,2.40
2019-05-04T10:45:11.851Z,2.47
2019-05-04T10:47:41.298Z,1.67
2019-05-04T10:50:12.030Z,2.15
2019-05-04T10:52:44.576Z,1.55
2019-05-04T10:55:14.997Z,1.77
2019-05-04T10:57:45.061Z,1.95
2019-05-04T11:00:14.886Z,2.00
2019-05-04T11:02:45.009Z,1.40
2019-05-04T11:05:15.252Z,1.75
2019-05-04T11:07:45.581Z,0.98
2019-05-04T11:10:15.442Z,1.02
2019-05-04T11:12:45.626Z,1.55
2019-05-04T11:15:15.505Z,1.12
2019-05-04T11:17:44.959Z,1.50
2019-05-04T11:20:15.937Z,1.80
2019-05-04T11:22:45.445Z,1.80
2019-05-04T11:25:27.906Z,1.47
2019-05-04T11:31:55.194Z,1.90
2019-05-04T11:34:25.336Z,1.37
2019-05-04T11:36:55.328Z,1.50
2019-05-04T11:39:24.800Z,1.82
2019-05-04T11:41:54.851Z,1.20
2019-05-04T11:44:27.545Z,1.30
2019-05-04T11:46:59.933Z,1.05
2019-05-04T11:49:27.097Z,1.00
2019-05-04T11:51:56.630Z,1.37
2019-05-04T11:54:26.318Z,1.30
2019-05-04T11:56:55.823Z,2.10
2019-05-04T11:59:25.360Z,1.10
2019-05-04T12:01:54.918Z,1.20
2019-05-04T12:04:42.046Z,1.35
2019-05-04T12:07:34.582Z,1.20
2019-05-04T12:10:10.274Z,1.12
2019-05-04T12:12:39.798Z,0.90
2019-05-04T12:15:09.710Z,1.40
2019-05-04T12:17:39.283Z,1.25
2019-05-04T12:20:08.906Z,1.52
2019-05-04T12:22:38.645Z,1.50
2019-05-04T12:25:08.225Z,2.70
2019-05-04T12:27:37.722Z,2.65
2019-05-04T12:30:07.314Z,1.77
2019-05-04T12:32:36.836Z,1.70
2019-05-04T12:35:06.990Z,1.10
2019-05-04T12:37:36.463Z,0.90
2019-05-04T12:40:06.874Z,0.90
2019-05-04T12:42:36.391Z,0.90
2019-05-04T12:45:06.167Z,1.40
2019-05-04T12:47:35.802Z,1.27
2019-05-04T12:50:06.076Z,1.10
2019-05-04T12:52:35.745Z,2.60
2019-05-04T12:55:06.087Z,3.70
2019-05-04T12:57:35.637Z,1.40
2019-05-04T13:00:06.164Z,1.45
2019-05-04T13:02:35.643Z,1.30
2019-05-04T13:05:05.493Z,1.37
2019-05-04T13:07:35.311Z,1.50
2019-05-04T13:10:06.216Z,1.20
2019-05-04T13:12:35.646Z,1.50
2019-05-04T13:15:05.507Z,1.62
2019-05-04T13:17:46.513Z,1.35
2019-05-04T13:20:18.731Z,1.45
2019-05-04T13:22:47.850Z,2.85
2019-05-04T13:25:17.712Z,1.00
2019-05-04T13:27:47.226Z,1.30
2019-05-04T13:30:17.169Z,4.80
2019-05-04T13:32:47.253Z,2.60
2019-05-04T13:35:17.249Z,2.15
2019-05-04T13:37:46.778Z,2.08
2019-05-04T13:40:16.877Z,3.22
2019-05-04T13:42:46.379Z,2.35
2019-05-04T13:45:15.986Z,3.22
2019-05-04T13:47:45.473Z,3.25
2019-05-04T13:50:15.671Z,3.40
2019-05-04T13:52:47.687Z,1.02
2019-05-04T13:55:36.074Z,1.40
2019-05-04T13:58:25.803Z,1.47
2019-05-04T14:01:34.289Z,1.17
2019-05-04T14:04:21.704Z,1.10
2019-05-04T14:06:52.032Z,1.22
2019-05-04T14:09:21.567Z,0.98
2019-05-04T14:11:51.727Z,0.88
2019-05-04T14:14:21.594Z,0.80
2019-05-04T14:16:52.113Z,1.00
2019-05-04T14:19:21.730Z,0.90
2019-05-04T14:21:52.000Z,1.20
2019-05-04T14:24:21.812Z,0.72
2019-05-04T14:26:51.472Z,0.90
2019-05-04T14:29:21.070Z,0.80
2019-05-04T14:31:50.904Z,0.90
2019-05-04T14:34:20.503Z,0.90
2019-05-04T14:36:53.444Z,0.90
2019-05-04T14:39:25.041Z,0.80
2019-05-04T14:41:55.994Z,0.80
2019-05-04T14:44:59.289Z,0.70
2019-05-04T14:47:30.433Z,0.70
2019-05-04T14:50:00.272Z,0.80
2019-05-04T14:52:30.054Z,0.70
2019-05-04T14:54:59.554Z,0.80
2019-05-04T14:57:29.060Z,0.90
2019-05-04T14:59:58.498Z,1.10
2019-05-04T15:02:28.443Z,0.85
2019-05-04T15:05:15.507Z,1.10
2019-05-04T15:07:45.002Z,1.10
2019-05-04T15:10:14.964Z,1.17
2019-05-04T15:12:44.554Z,1.00
2019-05-04T15:15:16.508Z,1.05
2019-05-04T15:17:45.600Z,0.80
2019-05-04T15:20:40.527Z,1.05
2019-05-04T15:23:10.523Z,0.80
2019-05-04T15:25:40.659Z,1.00
2019-05-04T15:28:10.700Z,1.20
2019-05-04T15:30:40.951Z,1.90
2019-05-04T15:33:10.421Z,1.72
2019-05-04T15:35:39.900Z,1.40
2019-05-04T15:38:10.124Z,2.37
2019-05-04T15:40:39.567Z,2.87
2019-05-04T15:43:09.019Z,2.08
2019-05-04T15:45:38.459Z,1.40
2019-05-04T15:48:08.660Z,1.52
2019-05-04T15:51:06.749Z,1.52
2019-05-04T15:53:45.920Z,1.35
2019-05-04T15:56:22.034Z,1.65
2019-05-04T15:58:54.491Z,2.00
2019-05-04T16:01:24.745Z,2.02
2019-05-04T16:03:54.974Z,2.00
2019-05-04T16:06:26.401Z,2.80
2019-05-04T16:08:56.393Z,4.75
2019-05-04T16:11:26.103Z,4.45
2019-05-04T16:13:56.958Z,4.65
2019-05-04T16:16:26.835Z,3.95
2019-05-04T16:18:56.357Z,5.85
2019-05-04T16:21:25.847Z,4.33
2019-05-04T16:23:55.311Z,3.72
2019-05-04T16:26:24.803Z,12.25
2019-05-04T16:28:54.984Z,9.55
2019-05-04T16:31:25.271Z,19.37
2019-05-04T16:33:54.970Z,19.50
2019-05-04T16:36:24.917Z,5.30
2019-05-04T16:38:55.366Z,3.47
2019-05-04T16:41:26.378Z,3.58
2019-05-04T16:43:55.980Z,3.95
2019-05-04T16:46:25.451Z,6.50
2019-05-04T16:48:56.956Z,7.90
2019-05-04T16:51:47.735Z,4.15
2019-05-04T16:54:17.204Z,3.83
2019-05-04T16:56:46.708Z,3.85
2019-05-04T16:59:16.477Z,3.17
2019-05-04T17:02:14.568Z,2.47
2019-05-04T17:04:52.019Z,2.45
2019-05-04T17:07:21.843Z,2.70
2019-05-04T17:09:51.910Z,3.90
2019-05-04T17:12:24.516Z,3.25
2019-05-04T17:14:55.057Z,3.70
2019-05-04T17:17:24.938Z,3.55
2019-05-04T17:19:55.562Z,3.08
2019-05-04T17:22:25.496Z,3.20
2019-05-04T17:24:59.656Z,2.83
2019-05-04T17:27:48.123Z,3.25
2019-05-04T17:30:37.689Z,5.20
2019-05-04T17:33:10.871Z,3.92
2019-05-04T17:35:44.476Z,5.05
2019-05-04T17:38:15.284Z,4.30
2019-05-04T17:40:55.863Z,3.55
2019-05-04T17:43:54.260Z,2.95
2019-05-04T17:46:25.891Z,3.30
2019-05-04T17:48:55.301Z,3.15
2019-05-04T17:51:24.758Z,3.55
2019-05-04T17:53:55.083Z,3.72
2019-05-04T17:56:24.671Z,3.15
2019-05-04T17:58:54.956Z,2.80
2019-05-04T18:01:44.275Z,3.27
2019-05-04T18:04:16.649Z,3.30
2019-05-04T18:06:46.506Z,3.65
2019-05-04T18:09:16.020Z,10.18
2019-05-04T18:11:55.459Z,7.37
2019-05-04T18:14:44.424Z,7.55
2019-05-04T18:17:23.636Z,8.73
2019-05-04T18:19:54.671Z,6.78
2019-05-04T18:22:24.769Z,6.67
2019-05-04T18:24:54.822Z,7.08
2019-05-04T18:27:24.270Z,6.35
2019-05-04T18:29:54.786Z,5.12
2019-05-04T18:32:25.389Z,4.47
2019-05-04T18:34:55.311Z,3.80
2019-05-04T18:37:25.272Z,5.47
2019-05-04T18:39:54.906Z,6.10
2019-05-04T18:42:25.994Z,6.60
2019-05-04T18:45:34.796Z,5.17
2019-05-04T18:48:25.357Z,5.50
2019-05-04T18:50:57.607Z,5.87
2019-05-04T18:53:28.695Z,5.65
2019-05-04T18:55:58.360Z,5.15
2019-05-04T18:58:29.313Z,5.45
2019-05-04T19:00:59.373Z,4.65
2019-05-04T19:03:32.042Z,6.60
2019-05-04T19:06:18.746Z,5.12
2019-05-04T19:08:49.797Z,5.60
2019-05-04T19:11:19.730Z,6.25
2019-05-04T19:13:49.954Z,6.50
2019-05-04T19:16:19.870Z,6.17
2019-05-04T19:18:54.990Z,7.17
2019-05-04T19:21:25.773Z,8.05
2019-05-04T19:24:05.113Z,10.35
2019-05-04T19:26:36.558Z,11.75
2019-05-04T19:29:15.879Z,12.13
2019-05-04T19:31:47.114Z,10.28
2019-05-04T19:34:30.862Z,8.58
2019-05-04T19:37:04.927Z,7.62
2019-05-04T19:39:36.740Z,8.00
2019-05-04T19:42:17.165Z,7.60
2019-05-04T19:44:55.680Z,7.60
2019-05-04T19:47:27.082Z,8.00
2019-05-04T19:50:00.658Z,9.65
2019-05-04T19:52:31.751Z,7.85
2019-05-04T19:55:03.405Z,7.72
2019-05-04T19:57:36.042Z,6.20
2019-05-04T20:00:07.011Z,7.12
2019-05-04T20:02:44.815Z,5.22
2019-05-04T20:05:14.626Z,5.75
2019-05-04T20:07:48.026Z,6.30
2019-05-04T20:10:27.882Z,5.00
2019-05-04T20:13:04.886Z,6.08
2019-05-04T20:15:39.874Z,6.30
2019-05-04T20:18:13.391Z,6.25
2019-05-04T20:20:46.383Z,6.90
2019-05-04T20:23:15.071Z,6.45
2019-05-04T20:25:45.332Z,6.30
2019-05-04T20:28:18.825Z,6.33
2019-05-04T20:30:55.110Z,6.12
2019-05-04T22:04:04.856Z,5.92
2019-05-04T22:06:44.843Z,6.62
2019-05-04T22:09:35.686Z,6.70
2019-05-04T22:12:05.311Z,7.20
2019-05-04T22:14:35.397Z,7.65
2019-05-04T22:17:06.749Z,7.62
2019-05-04T22:19:36.975Z,8.93
2019-05-04T22:22:06.410Z,10.38
2019-05-04T22:24:35.878Z,8.75
2019-05-04T22:27:05.495Z,9.05
2019-05-04T22:29:35.450Z,8.38
2019-05-04T22:32:05.283Z,8.68
2019-05-04T22:34:35.187Z,8.65
2019-05-04T22:37:15.700Z,8.85
2019-05-04T22:39:45.174Z,9.18
2019-05-04T22:42:14.824Z,9.65
2019-05-04T22:44:44.502Z,9.00
2019-05-04T22:47:13.984Z,8.18
2019-05-04T22:49:44.632Z,7.55
2019-05-04T22:52:23.033Z,7.60
2019-05-04T22:55:04.511Z,6.12
2019-05-04T22:57:57.059Z,6.10
2019-05-04T23:00:45.212Z,5.87
2019-05-04T23:03:16.283Z,6.20
2019-05-04T23:05:45.878Z,6.83
2019-05-04T23:08:15.351Z,6.05
2019-05-04T23:10:46.581Z,6.05
2019-05-04T23:13:16.119Z,6.03
2019-05-04T23:15:45.573Z,6.00
2019-05-04T23:18:16.495Z,6.08
2019-05-04T23:20:46.016Z,5.55
2019-05-04T23:23:20.474Z,6.25
2019-05-04T23:25:50.506Z,7.95
2019-05-04T23:28:19.999Z,6.92
2019-05-04T23:30:49.514Z,5.50
2019-05-04T23:33:18.950Z,6.08
2019-05-04T23:35:48.388Z,6.53
2019-05-04T23:38:17.863Z,6.80
2019-05-04T23:40:47.314Z,5.60
2019-05-04T23:43:16.790Z,6.45
2019-05-04T23:45:47.438Z,5.80
2019-05-04T23:48:20.350Z,6.40
2019-05-04T23:50:50.087Z,5.70
2019-05-04T23:53:19.543Z,5.85
2019-05-04T23:55:48.960Z,6.08
2019-05-04T23:58:40.443Z,5.72
